Tiempo atmosférico en la estación meteorológica de Girona, Girona (79 m.)



Fecha
DESCASC
Temp. máxima en grados centígrados (hora)
DESCASC
Temp. mínima en grados centígrados (hora)
DESCASC
Temp. media en grados centígrados
DESCASC
Racha de viento máxima en m/sg (hora)
DESCASC
Velocidad máxima media en intervalos de 10 minutos(hora)
DESCASC
Precipitaciones diarias en mm
DESCASC
Precipitaciones de 00:00 a 06:00 en mm
DESCASC
Precipitaciones de 06:00 a 12:00 en mm
DESCASC
Precipitaciones de 12:00 a 18:00 en mm
DESCASC
Precipitaciones de 18:00 a 24:00 en mm
DESCASC
21-02-2021 15.2 (14:10) 7.5 (00:40) 11.3 6.67 (22:50) 2.78 (22:30) 1.2 0 0 0 1.2
20-02-2021 16 (14:50) 7.8 (23:50) 11.9 9.72 (13:20) 4.44 (14:10) 0 0 0 0 0
19-02-2021 16.2 (15:00) 8.9 (22:10) 12.6 6.11 (15:20) 3.06 (16:30) 0 0 0 0 0
18-02-2021 16.4 (14:40) 8.8 (00:00) 12.6 7.78 (14:00) 4.17 (14:00) 0 0 0 0 0
17-02-2021 19.3 (14:20) 5.5 (00:00) 12.4 6.67 (15:50) 3.33 (14:50) 0 0 0 0 0
16-02-2021 18.9 (15:50) 8.4 (00:00) 13.6 7.78 (01:00) 3.61 (13:30) 0 0 0 0 0
15-02-2021 12.5 (16:20) 6.5 (00:00) 9.5 8.06 (15:20) 3.61 (15:20) 0 0 0 0 0
14-02-2021 10.2 (00:00) 6.7 (00:00) 8.4 4.72 (01:30) 2.22 (02:40) 1.2 0 1.2 0 0
13-02-2021 17.9 (15:20) 6 (00:00) 11.9 5.28 (16:40) 2.78 (16:40) 4.6 0 0 0 4.6
12-02-2021 14.1 (13:50) 4.9 (00:00) 9.5 7.5 (14:50) 3.33 (14:40) 2.6 0 0 0 2.6
11-02-2021 17.5 (15:50) 5.3 (00:00) 11.4 5 (12:40) 2.22 (12:40) 0 0 0 0 0
10-02-2021 15.6 (15:10) 6.8 (00:00) 11.2 6.11 (15:00) 2.78 (13:30) 0 0 0 0 0
09-02-2021 14.8 (15:00) 2.8 (00:00) 8.8 7.78 (23:20) 3.61 (14:50) 0 0 0 0 0
08-02-2021 11.3 (13:30) 4 (00:00) 7.7 3.33 (11:00) 1.67 (11:00) 2.8 0 0 2 0.8
07-02-2021 10.2 (00:00) 5.5 (00:00) 7.8 5 (11:40) 2.5 (10:00) 10.8 4.2 5.6 1 0
06-02-2021 19.1 (14:20) 10.2 (00:00) 14.7 8.33 (15:30) 3.61 (15:20) 0 0 0 0 0
05-02-2021 15.9 (15:00) 10.5 (00:00) 13.2 5.56 (13:30) 2.78 (12:30) 0 0 0 0 0
04-02-2021 18.9 (14:00) 6 (00:00) 12.4 4.17 (13:30) 2.22 (20:40) 0 0 0 0 0
03-02-2021 23.1 (14:10) 8.9 (00:00) 16 6.67 (07:00) 3.06 (06:20) 0 0 0 0 0
02-02-2021 20.7 (15:10) 5.7 (00:00) 13.2 4.72 (16:40) 2.22 (15:30) 0 0 0 0 0
01-02-2021 20.1 (16:30) 6.1 (00:00) 13.1 5.83 (01:00) 2.5 (01:00) 0 0 0 0 0
31-01-2021 17.9 (16:40) 5.8 (00:00) 11.8 5.28 (13:40) 2.22 (12:40) 0 0 0 0 0
30-01-2021 18.2 (11:20) 6.8 (00:00) 12.5 8.33 (10:40) 3.06 (14:20) 5.4 0 0 3 2.4
29-01-2021 21.3 (15:00) 5.8 (00:00) 13.5 4.72 (15:50) 2.22 (15:10) 0 0 0 0 0
28-01-2021 19.1 (15:20) 5 (00:00) 12.1 3.61 (16:10) 1.67 (16:20) 0 0 0 0 0
27-01-2021 18.4 (15:00) 2.5 (00:00) 10.4 3.61 (12:00) 1.39 (15:30) 0 0 0 0 0
26-01-2021 13.6 (15:40) 3.3 (00:00) 8.5 8.33 (00:20) 3.89 (00:20) 0 0 0 0 0
25-01-2021 13.3 (14:00) 2.7 (00:00) 8 11.11 (23:20) 4.72 (23:20) 0 0 0 0 0

Gráficas

Temp. máximas Temp. mínimas Temp. medias Precipitaciones Rachas de viento máximas Velocidades máximas media en intervalos de 10 minutos

Datos horarios

Fecha y hora oficial Temperatura (ºC) Velocidad del viento (km/h) Dirección del viento Racha (km/h) Dirección de racha Precipitación (mm) Presión (hPa) Tendencia (hPa) Humedad (%)
2021-02-23 23:00:00 13.6 2 Sudeste 7 Sur 0 -- -- 93
2021-02-23 22:00:00 13.6 3 Sur 9 Sudeste 0 -- -- 94
2021-02-23 21:00:00 13.5 5 Sur 11 Sudeste 0 -- -- 94
2021-02-23 20:00:00 13.7 4 Sur 11 Sudeste 0 -- -- 92
2021-02-23 19:00:00 14.5 4 Sur 15 Sudeste 0 -- -- 86
2021-02-23 18:00:00 16.7 8 Sur 15 Sur 0 -- -- 76
2021-02-23 17:00:00 19 7 Sur 13 Sudeste 0 -- -- 65
2021-02-23 16:00:00 19.8 6 Sudeste 15 Sudeste 0 -- -- 58
2021-02-23 15:00:00 19.4 6 Sur 14 Sudeste 0 -- -- 62
2021-02-23 14:00:00 18.9 5 Sur 13 Sur 0 -- -- 63
2021-02-23 13:00:00 16.6 3 Sur 8 Sudoeste 0 -- -- 79
2021-02-23 12:00:00 16.2 3 Sudoeste 6 Sudoeste 0.2 -- -- 79
2021-02-23 11:00:00 -- -- -- -- -- -- -- -- --
2021-02-23 10:00:00 13.4 3 Noroeste 6 Noroeste 0 -- -- 100
2021-02-23 09:00:00 12.4 0 Calma 3 Noroeste 0 -- -- 100
2021-02-23 08:00:00 11.9 0 Calma 4 Noroeste 0 -- -- 100
2021-02-23 07:00:00 12 0 Calma 5 Noroeste 0 -- -- 100
2021-02-23 06:00:00 12.1 2 Noroeste 5 Noroeste 0.2 -- -- 100
2021-02-23 05:00:00 12.1 0 Calma 4 Nordeste 0.4 -- -- 100
2021-02-23 04:00:00 12 0 Calma 6 Norte 0.4 -- -- 99
2021-02-23 03:00:00 12.2 0 Calma 6 Nordeste 0 -- -- 100
2021-02-23 02:00:00 12.3 0 Calma 4 Nordeste 0 -- -- 100
2021-02-23 01:00:00 12.6 0 Calma 4 Nordeste 0 -- -- 100
2021-02-23 00:00:00 12.8 0 Calma 5 Norte 0.2 -- -- 100
2021-02-22 23:00:00 13 0 Calma 2 Noroeste 0.6 -- -- 98
2021-02-22 22:00:00 13.4 0 Calma 5 Sudeste 0 -- -- 92
2021-02-22 21:00:00 13.6 0 Calma 11 Sur 0 -- -- 89
2021-02-22 20:00:00 14 4 Sur 14 Sudeste 0 -- -- 92
2021-02-22 19:00:00 14 6 Sudeste 22 Este 0.2 -- -- 91
2021-02-22 18:00:00 14.2 4 Sudeste 15 Nordeste 0 -- -- 92
2021-02-22 17:00:00 14.5 4 Este 13 Este 0 -- -- 90
2021-02-22 16:00:00 14.6 3 Nordeste 13 Este 0.2 -- -- 90
2021-02-22 15:00:00 14.9 4 Este 14 Sudeste 0 -- -- 91
2021-02-22 14:00:00 14.7 4 Este 17 Este 0.2 -- -- 94
2021-02-22 13:00:00 14.4 3 Nordeste 10 Sudeste 0 -- -- 95
2021-02-22 12:00:00 14.2 0 Calma 10 Este 0 -- -- 96
2021-02-22 11:00:00 14 4 Nordeste 13 Norte 0 -- -- 96
2021-02-22 10:00:00 13.7 4 Este 16 Este 0 -- -- 99
2021-02-22 09:00:00 13.3 5 Norte 9 Norte 0.2 -- -- 100
2021-02-22 08:00:00 13.2 2 Noroeste 6 Sudoeste 0.6 -- -- 99
2021-02-22 07:00:00 13.6 3 Norte 6 Norte 0 -- -- 96
2021-02-22 06:00:00 13.7 2 Norte 14 Sudeste 0 -- -- 94
2021-02-22 05:00:00 13.7 5 Nordeste 13 Nordeste 0 -- -- 94
2021-02-22 04:00:00 13.5 5 Sudeste 15 Norte 0 -- -- 95
2021-02-22 03:00:00 13.3 5 Norte 15 Nordeste 0 -- -- 96
2021-02-22 02:00:00 12.9 4 Norte 15 Norte 0.2 -- -- 99
2021-02-22 01:00:00 12.6 4 Norte 16 Norte 0.2 -- -- 99
2021-02-22 00:00:00 12.5 4 Noroeste 16 Norte 1.2 -- -- 97
2021-02-21 23:00:00 12.6 8 Norte 24 Norte 0 -- -- 94
2021-02-21 22:00:00 12.7 6 Norte 17 Nordeste 0 -- -- 91
2021-02-21 21:00:00 12.8 6 Norte 16 Norte 0 -- -- 91
2021-02-21 20:00:00 12.7 9 Norte 18 Norte 0 -- -- 91
2021-02-21 19:00:00 12.7 5 Norte 13 Norte 0 -- -- 91
2021-02-21 18:00:00 13.2 6 Norte 17 Norte 0 -- -- 85
2021-02-21 17:00:00 13.8 7 Norte 18 Nordeste 0 -- -- 80
2021-02-21 16:00:00 14.5 8 Norte 17 Norte 0 -- -- 76
2021-02-21 15:00:00 14.6 6 Norte 17 Nordeste 0 -- -- 75
2021-02-21 14:00:00 15 6 Nordeste 17 Nordeste 0 -- -- 70
2021-02-21 13:00:00 14.1 7 Norte 16 Noroeste 0 -- -- 75
2021-02-21 12:00:00 13.2 6 Norte 16 Nordeste 0 -- -- 76
2021-02-21 11:00:00 12.5 6 Norte 13 Norte 0 -- -- 75
2021-02-21 10:00:00 11.2 0 Calma 9 Norte 0 -- -- 81
2021-02-21 09:00:00 10.1 4 Noroeste 11 Noroeste 0 -- -- 84
2021-02-21 08:00:00 9.1 0 Calma 5 Noroeste 0 -- -- 92
2021-02-21 07:00:00 8.8 0 Calma 4 Norte 0 -- -- 91
2021-02-21 06:00:00 8.5 2 Noroeste 5 Noroeste 0 -- -- 92
2021-02-21 05:00:00 8.6 0 Calma 4 Noroeste 0 -- -- 93
2021-02-21 04:00:00 8.4 2 Oeste 5 Noroeste 0 -- -- 93
2021-02-21 03:00:00 8.6 2 Noroeste 4 Noroeste 0 -- -- 94
2021-02-21 02:00:00 8.1 0 Calma 4 Sudoeste 0 -- -- 96
2021-02-21 01:00:00 7.6 0 Calma 4 Nordeste 0 -- -- 96
2021-02-21 00:00:00 7.9 2 Nordeste 4 Nordeste 0 -- -- 95
2021-02-20 23:00:00 8.3 0 Calma 5 Sudeste 0 -- -- 93
2021-02-20 22:00:00 8.9 0 Calma 11 Sudeste 0 -- -- 89
2021-02-20 21:00:00 9.8 4 Sur 15 Sur 0 -- -- 87
2021-02-20 20:00:00 10.3 6 Sudeste 17 Sudeste 0 -- -- 84
2021-02-20 19:00:00 11.1 10 Sudeste 25 Sudeste 0 -- -- 80
2021-02-20 18:00:00 12.5 10 Sudeste 27 Sudeste 0 -- -- 76
2021-02-20 17:00:00 14.4 11 Sudeste 26 Sur 0 -- -- 68
2021-02-20 16:00:00 15.4 15 Sudeste 33 Sudeste 0 -- -- 62
2021-02-20 15:00:00 15.9 14 Sudeste 31 Sur 0 -- -- 61
2021-02-20 14:00:00 15.3 15 Sudeste 35 Sudeste 0 -- -- 63
2021-02-20 13:00:00 15.3 15 Sudeste 31 Sur 0 -- -- 65
2021-02-20 12:00:00 14.6 13 Sur 24 Sur 0 -- -- 67
2021-02-20 11:00:00 11.6 8 Sudeste 18 Sudeste 0 -- -- 82
2021-02-20 10:00:00 9.2 5 Sudeste 17 Sudoeste 0 -- -- 89
2021-02-20 09:00:00 8.6 7 Sur 17 Sudoeste 0 -- -- 92
2021-02-20 08:00:00 8.7 8 Sudoeste 17 Sudoeste 0 -- -- 93
2021-02-20 07:00:00 8.9 6 Sur 15 Sudoeste 0 -- -- 94
2021-02-20 06:00:00 9.2 6 Sur 15 Sudoeste 0 -- -- 95
2021-02-20 05:00:00 9.5 9 Sudoeste 20 Sudoeste 0 -- -- 95
2021-02-20 04:00:00 9.7 9 Sur 22 Sur 0 -- -- 96
2021-02-20 03:00:00 9.7 8 Sur 16 Sur 0 -- -- 98
2021-02-20 02:00:00 9.5 4 Sur 10 Sur 0 -- -- 99
2021-02-20 01:00:00 9.4 5 Sur 9 Sur 0 -- -- 97
2021-02-20 00:00:00 9.6 5 Sur 9 Sur 0 -- -- 97
2021-02-19 23:00:00 9.3 3 Sur 7 Sur 0 -- -- 98
2021-02-19 22:00:00 9.1 3 Sur 9 Sur 0 -- -- 95
2021-02-19 21:00:00 9.6 6 Sudoeste 10 Sur 0 -- -- 91
2021-02-19 20:00:00 10.2 4 Sur 11 Sur 0 -- -- 88
2021-02-19 19:00:00 11 6 Sur 17 Sur 0 -- -- 84
2021-02-19 18:00:00 12.2 7 Sur 21 Sur 0 -- -- 79
2021-02-19 17:00:00 14.2 10 Sur 22 Sudeste 0 -- -- 72
2021-02-19 16:00:00 15.8 8 Sudeste 22 Sudeste 0 -- -- 65
2021-02-19 15:00:00 16.2 8 Sur 22 Sudeste 0 -- -- 64
2021-02-19 14:00:00 15.5 9 Sur 21 Sur 0 -- -- 66
2021-02-19 13:00:00 13.7 8 Sur 20 Sudeste 0 -- -- 71
2021-02-19 12:00:00 12.2 7 Sur 15 Sudoeste 0 -- -- 76
2021-02-19 11:00:00 11.3 5 Sur 12 Sudeste 0 -- -- 79
2021-02-19 10:00:00 10.8 4 Sur 9 Sudeste 0 -- -- 87
2021-02-19 09:00:00 10.1 0 Calma 5 Sur 0 -- -- 91
2021-02-19 08:00:00 9.7 0 Calma 4 Sur 0 -- -- 92
2021-02-19 07:00:00 9.6 0 Calma 2 Noroeste 0 -- -- 93
2021-02-19 06:00:00 9.6 0 Calma 2 Sudoeste 0 -- -- 95
2021-02-19 05:00:00 9.4 0 Calma 3 Norte 0 -- -- 96
2021-02-19 04:00:00 9.4 0 Calma 3 Oeste 0 -- -- 94
2021-02-19 03:00:00 9.8 0 Calma 6 Norte 0 -- -- 92
2021-02-19 02:00:00 10.1 2 Noroeste 10 Norte 0 -- -- 92
2021-02-19 01:00:00 9.9 0 Calma 6 Norte 0 -- -- 94
2021-02-19 00:00:00 9 4 Norte 8 Norte 0 -- -- 95
2021-02-18 23:00:00 9.5 3 Sur 10 Sudeste 0 -- -- 92
2021-02-18 22:00:00 10.3 6 Sudeste 15 Sur 0 -- -- 89
2021-02-18 21:00:00 10.6 6 Sudeste 15 Sudeste 0 -- -- 88
2021-02-18 20:00:00 10.9 5 Sur 20 Sudeste 0 -- -- 86
2021-02-18 19:00:00 11.5 9 Sudeste 24 Sur 0 -- -- 82
2021-02-18 18:00:00 13.1 11 Sur 26 Sur 0 -- -- 74
2021-02-18 17:00:00 15.3 10 Sur 23 Sudeste 0 -- -- 65
2021-02-18 16:00:00 16.4 12 Sur 26 Sudeste 0 -- -- 61
2021-02-18 15:00:00 16.3 11 Sur 28 Sudeste 0 -- -- 62
2021-02-18 14:00:00 15.9 15 Sudeste 28 Sur 0 -- -- 66
2021-02-18 13:00:00 13.3 12 Sur 27 Sudeste 0 -- -- 76
2021-02-18 12:00:00 11.7 8 Sur 21 Sur 0 -- -- 83
2021-02-18 11:00:00 10.8 8 Sur 20 Sur 0 -- -- 87
2021-02-18 10:00:00 10.2 7 Sur 14 Sudeste 0 -- -- 92
2021-02-18 09:00:00 9.7 6 Sur 14 Sur 0 -- -- 95
2021-02-18 08:00:00 9.8 4 Sur 20 Sur 0 -- -- 96
2021-02-18 07:00:00 10 7 Sur 18 Sudeste 0 -- -- 98
2021-02-18 06:00:00 9.5 6 Sudeste 13 Sur 0 -- -- 99
2021-02-18 05:00:00 9.2 4 Sudeste 11 Sur 0 -- -- 98
2021-02-18 04:00:00 9.5 5 Sur 12 Sudeste 0 -- -- 96
2021-02-18 03:00:00 9.7 4 Sur 12 Sur 0 -- -- 95
2021-02-18 02:00:00 10.1 4 Sur 14 Sudeste 0 -- -- 95
2021-02-18 01:00:00 10.1 4 Sudeste 12 Sudeste 0 -- -- 95
2021-02-18 00:00:00 10.1 3 Sur 8 Sudeste 0 -- -- 93
2021-02-17 23:00:00 10.4 0 Calma 10 Sudoeste 0 -- -- 88
2021-02-17 22:00:00 11.1 3 Sur 8 Sudeste 0 -- -- 86
2021-02-17 21:00:00 11.5 4 Sur 10 Sudeste 0 -- -- 83
2021-02-17 20:00:00 12.1 4 Sur 11 Sur 0 -- -- 79
2021-02-17 19:00:00 13 4 Sur 19 Sudeste 0 -- -- 74
2021-02-17 18:00:00 14.7 8 Sudeste 22 Sudeste 0 -- -- 67
2021-02-17 17:00:00 16.9 10 Sur 21 Sur 0 -- -- 58
2021-02-17 16:00:00 18.2 8 Sur 24 Sudeste 0 -- -- 56
2021-02-17 15:00:00 18.9 12 Sudeste 23 Sudeste 0 -- -- 53
2021-02-17 14:00:00 19.1 9 Sudeste 19 Sudeste 0 -- -- 52
2021-02-17 13:00:00 18.2 7 Sur 13 Sudeste 0 -- -- 53
2021-02-17 12:00:00 15.8 4 Sur 9 Sudeste 0 -- -- 62
2021-02-17 11:00:00 11.7 3 Sudeste 7 Sudeste 0 -- -- 80
2021-02-17 10:00:00 7.9 0 Calma 8 Sudeste 0 -- -- 94
2021-02-17 09:00:00 6.1 3 Sur 5 Nordeste 0 -- -- 98
2021-02-17 08:00:00 5.6 0 Calma 4 Este 0 -- -- 98
2021-02-17 07:00:00 5.9 3 Este 4 Nordeste 0 -- -- 98
2021-02-17 06:00:00 6.4 2 Sudoeste 6 Sudoeste 0 -- -- 98
2021-02-17 05:00:00 6.5 0 Calma 5 Nordeste 0 -- -- 96
2021-02-17 04:00:00 7.2 0 Calma 4 Este 0 -- -- 95
2021-02-17 03:00:00 7.3 0 Calma 5 Nordeste 0 -- -- 94
2021-02-17 02:00:00 7.7 0 Calma 5 Este 0 -- -- 93
2021-02-17 01:00:00 8.1 0 Calma 6 Este 0 -- -- 92
2021-02-17 00:00:00 8.4 0 Calma 4 Este 0 -- -- 92
2021-02-16 23:00:00 9 0 Calma 5 Nordeste 0 -- -- 90
2021-02-16 22:00:00 9.3 2 Sudeste 4 Sudeste 0 -- -- 89
2021-02-16 21:00:00 10.1 4 Nordeste 13 Norte 0 -- -- 86
2021-02-16 20:00:00 10.9 4 Noroeste 12 Noroeste 0 -- -- 83
2021-02-16 19:00:00 11.8 4 Norte 13 Norte 0 -- -- 79
2021-02-16 18:00:00 14.6 6 Norte 19 Sudeste 0 -- -- 68
2021-02-16 17:00:00 18.2 8 Sur 21 Sur 0 -- -- 55
2021-02-16 16:00:00 18.6 8 Sur 21 Sudoeste 0 -- -- 52
2021-02-16 15:00:00 17.9 10 Sur 24 Sudeste 0 -- -- 52
2021-02-16 14:00:00 17.7 11 Sur 27 Sudoeste 0 -- -- 52
2021-02-16 13:00:00 17.1 10 Sur 23 Sudeste 0 -- -- 54
2021-02-16 12:00:00 16.2 11 Sur 22 Sudoeste 0 -- -- 57
2021-02-16 11:00:00 14.2 9 Sur 16 Sur 0 -- -- 64
2021-02-16 10:00:00 12 9 Sudoeste 19 Sur 0 -- -- 72
2021-02-16 09:00:00 10.4 6 Sur 21 Sur 0 -- -- 77
2021-02-16 08:00:00 9 6 Sudoeste 17 Sur 0 -- -- 85
2021-02-16 07:00:00 9.1 8 Sur 20 Sur 0 -- -- 86
2021-02-16 06:00:00 8.8 4 Sudeste 15 Sur 0 -- -- 86
2021-02-16 05:00:00 9.2 7 Sur 18 Sudeste 0 -- -- 87
2021-02-16 04:00:00 9.3 7 Sur 16 Sur 0 -- -- 88
2021-02-16 03:00:00 9.6 8 Sur 25 Sudeste 0 -- -- 87
2021-02-16 02:00:00 9.7 6 Sur 25 Sudeste 0 -- -- 86
2021-02-16 01:00:00 9.8 10 Sur 28 Sur 0 -- -- 86
2021-02-16 00:00:00 9.8 12 Sur 27 Sur 0 -- -- 84
2021-02-15 23:00:00 9.5 8 Sur 27 Sur 0 -- -- 83
2021-02-15 22:00:00 9.9 11 Sur 25 Sur 0 -- -- 81
2021-02-15 21:00:00 9.9 10 Sur 25 Sur 0 -- -- 81
2021-02-15 20:00:00 9.9 9 Sur 25 Sudeste 0 -- -- 78
2021-02-15 19:00:00 10.1 8 Sur 22 Sur 0 -- -- 77
2021-02-15 18:00:00 10.6 8 Sur 21 Sur 0 -- -- 73
2021-02-15 17:00:00 11.5 10 Sur 25 Sur 0 -- -- 70
2021-02-15 16:00:00 12.4 13 Sur 29 Sur 0 -- -- 66
2021-02-15 15:00:00 11.6 10 Sur 27 Sur 0 -- -- 69
2021-02-15 14:00:00 11.2 8 Sur 23 Sudeste 0 -- -- 70
2021-02-15 13:00:00 10.7 10 Sur 22 Sur 0 -- -- 70
2021-02-15 12:00:00 9.9 8 Sur 18 Sudoeste 0 -- -- 74
2021-02-15 11:00:00 8.8 7 Sur 17 Sur 0 -- -- 80
2021-02-15 10:00:00 7.9 4 Sur 13 Sudeste 0 -- -- 84
2021-02-15 09:00:00 7.3 4 Sudeste 9 Sur 0 -- -- 86
2021-02-15 08:00:00 7 4 Sur 12 Sudeste 0 -- -- 87
2021-02-15 07:00:00 6.9 4 Sudeste 11 Sudeste 0 -- -- 86
2021-02-15 06:00:00 6.9 2 Sudeste 9 Sudeste 0 -- -- 86
2021-02-15 05:00:00 6.7 2 Sudeste 10 Sudeste 0 -- -- 87
2021-02-15 04:00:00 6.7 4 Sur 9 Sudeste 0 -- -- 88
2021-02-15 03:00:00 6.6 5 Sudeste 9 Sudeste 0 -- -- 89
2021-02-15 02:00:00 6.6 4 Sudeste 9 Sudeste 0 -- -- 89
2021-02-15 01:00:00 6.6 4 Sudeste 10 Sudeste 0 -- -- 88
2021-02-15 00:00:00 6.8 4 Sudeste 10 Este 0 -- -- 85
2021-02-14 23:00:00 6.8 2 Sudeste 8 Sudeste 0 -- -- 84
2021-02-14 22:00:00 6.9 2 Sudeste 7 Sudeste 0 -- -- 84
2021-02-14 21:00:00 7 3 Sudeste 6 Sur 0 -- -- 83
2021-02-14 20:00:00 7.1 0 Calma 5 Sur 0 -- -- 81
2021-02-14 19:00:00 7.3 3 Sudoeste 6 Sudoeste 0 -- -- 80
2021-02-14 18:00:00 7.6 4 Sur 5 Sudeste 0 -- -- 73
2021-02-14 17:00:00 7.8 2 Sur 7 Sudeste 0 -- -- 72
2021-02-14 16:00:00 7.9 2 Este 10 Sudeste 0 -- -- 73
2021-02-14 15:00:00 7.9 2 Norte 10 Este 0 -- -- 74
2021-02-14 14:00:00 7.7 3 Sudeste 15 Sudeste 0 -- -- 76
2021-02-14 13:00:00 7.9 3 Nordeste 11 Nordeste 0 -- -- 78
2021-02-14 12:00:00 8 2 Nordeste 10 Este 0 -- -- 82
2021-02-14 11:00:00 7.8 3 Este 11 Este 0 -- -- 88
2021-02-14 10:00:00 7.6 3 Nordeste 7 Nordeste 0 -- -- 95
2021-02-14 09:00:00 7.5 0 Calma 12 Nordeste 0.6 -- -- 100
2021-02-14 08:00:00 7.5 5 Norte 14 Noroeste 0.2 -- -- 98
2021-02-14 07:00:00 7.8 5 Norte 12 Norte 0.4 -- -- 94
2021-02-14 06:00:00 8.1 3 Norte 8 Norte 0 -- -- 91
2021-02-14 05:00:00 8.4 2 Noroeste 7 Oeste 0 -- -- 85
2021-02-14 04:00:00 8.8 2 Noroeste 13 Noroeste 0 -- -- 81
2021-02-14 03:00:00 8.8 7 Norte 15 Norte 0 -- -- 81
2021-02-14 02:00:00 9 6 Norte 17 Nordeste 0 -- -- 81
2021-02-14 01:00:00 9.7 4 Nordeste 13 Este 0 -- -- 87
2021-02-14 00:00:00 10.2 2 Norte 12 Norte 1.2 -- -- 95
2021-02-13 23:00:00 10.7 4 Noroeste 10 Noroeste 2.6 -- -- 99
2021-02-13 22:00:00 11.7 0 Calma 6 Norte 0.8 -- -- 92
2021-02-13 21:00:00 12.2 3 Sudeste 11 Sur 0 -- -- 84
2021-02-13 20:00:00 12.5 4 Sudeste 14 Sur 0 -- -- 82
2021-02-13 19:00:00 12.6 5 Sudeste 18 Sudeste 0 -- -- 82
2021-02-13 18:00:00 13.1 8 Sudeste 18 Sudeste 0 -- -- 80
2021-02-13 17:00:00 14.6 9 Sur 19 Sudeste 0 -- -- 73
2021-02-13 16:00:00 16.5 8 Sudeste 16 Sur 0 -- -- 65
2021-02-13 15:00:00 17.7 8 Sur 15 Sudoeste 0 -- -- 56
2021-02-13 14:00:00 16.4 6 Sudoeste 16 Sudeste 0 -- -- 62
2021-02-13 13:00:00 15.3 7 Sur 15 Sur 0 -- -- 68
2021-02-13 08:00:00 -- -- -- -- -- -- -- -- --
2021-02-13 07:00:00 6.5 0 Calma 5 Sudeste 0 -- -- 100
2021-02-13 06:00:00 6.7 0 Calma 6 Este 0 -- -- 100
2021-02-13 05:00:00 6.5 0 Calma 5 Sur 0 -- -- 100
2021-02-13 04:00:00 7.6 0 Calma 8 Nordeste 0 -- -- 100
2021-02-13 03:00:00 8 3 Sudeste 5 Nordeste 0 -- -- 100
2021-02-13 02:00:00 8.4 0 Calma 4 Oeste 0 -- -- 100
2021-02-13 01:00:00 9 0 Calma 6 Sudoeste 0 -- -- 100
2021-02-13 00:00:00 9.1 0 Calma 4 Nordeste 0 -- -- 100
2021-02-12 23:00:00 8.8 0 Calma 7 Sur 0 -- -- 98
2021-02-12 22:00:00 9.4 0 Calma 7 Noroeste 0 -- -- 98
2021-02-12 21:00:00 9.4 2 Oeste 7 Nordeste 0.4 -- -- 97
2021-02-12 20:00:00 9.7 3 Noroeste 12 Norte 0.8 -- -- 96
2021-02-12 19:00:00 10.1 4 Norte 14 Norte 1.4 -- -- 92
2021-02-12 18:00:00 11.3 6 Norte 22 Norte 0 -- -- 79
2021-02-12 17:00:00 12.1 8 Norte 20 Nordeste 0 -- -- 72
2021-02-12 16:00:00 13 8 Norte 24 Nordeste 0 -- -- 72
2021-02-12 15:00:00 12.5 11 Norte 27 Norte 0 -- -- 76
2021-02-12 14:00:00 14.1 9 Norte 14 Norte 0 -- -- 73
2021-02-12 13:00:00 13.7 4 Noroeste 10 Norte 0 -- -- 74
2021-02-12 12:00:00 12.9 4 Noroeste 9 Norte 0 -- -- 77
2021-02-12 11:00:00 10.4 3 Noroeste 7 Noroeste 0 -- -- 89
2021-02-12 10:00:00 7 0 Calma 5 Sudoeste 0 -- -- 94
2021-02-12 09:00:00 5.4 0 Calma 3 Noroeste 0 -- -- 96
2021-02-12 08:00:00 5 0 Calma 4 Norte 0 -- -- 95
2021-02-12 07:00:00 5.1 0 Calma 6 Noroeste 0 -- -- 96
2021-02-12 06:00:00 5 0 Calma 4 Oeste 0 -- -- 95
2021-02-12 05:00:00 5.3 0 Calma 5 Este 0 -- -- 93
2021-02-12 04:00:00 5.6 3 Este 5 Este 0 -- -- 94
2021-02-12 03:00:00 5.8 2 Sudoeste 5 Sur 0 -- -- 95
2021-02-12 02:00:00 6.1 0 Calma 5 Nordeste 0 -- -- 92
2021-02-12 01:00:00 6.6 0 Calma 4 Sudeste 0 -- -- 90
2021-02-12 00:00:00 7.5 0 Calma 5 Nordeste 0 -- -- 86
2021-02-11 23:00:00 8.1 0 Calma 4 Este 0 -- -- 84
2021-02-11 22:00:00 8.9 0 Calma 4 Este 0 -- -- 81
2021-02-11 21:00:00 9.5 0 Calma 3 Este 0 -- -- 78
2021-02-11 20:00:00 10.7 2 Sur 6 Sudoeste 0 -- -- 72
2021-02-11 19:00:00 12.2 2 Sur 12 Sudeste 0 -- -- 66
2021-02-11 18:00:00 14.3 5 Sur 17 Sudeste 0 -- -- 59
2021-02-11 17:00:00 16.8 4 Sudeste 13 Sur 0 -- -- 55
2021-02-11 16:00:00 17.4 5 Sudeste 12 Sudeste 0 -- -- 52
2021-02-11 15:00:00 16.6 3 Este 12 Sur 0 -- -- 54
2021-02-11 14:00:00 16.4 6 Sudeste 14 Sudeste 0 -- -- 53
2021-02-11 13:00:00 15.6 8 Sudeste 18 Sur 0 -- -- 57
2021-02-11 12:00:00 14.4 6 Sur 12 Sudoeste 0 -- -- 62
2021-02-11 11:00:00 11 4 Sur 7 Sur 0 -- -- 67
2021-02-11 10:00:00 8.1 0 Calma 5 Norte 0 -- -- 77
2021-02-11 09:00:00 6.4 3 Noroeste 8 Sudoeste 0 -- -- 86
2021-02-11 08:00:00 6.3 0 Calma 5 Noroeste 0 -- -- 86
2021-02-11 07:00:00 5.9 0 Calma 4 Nordeste 0 -- -- 89
2021-02-11 06:00:00 5.8 2 Nordeste 5 Nordeste 0 -- -- 91
2021-02-11 05:00:00 5.5 0 Calma 5 Sur 0 -- -- 91
2021-02-11 04:00:00 5.6 2 Oeste 7 Nordeste 0 -- -- 91
2021-02-11 03:00:00 5.7 0 Calma 4 Sudoeste 0 -- -- 91
2021-02-11 02:00:00 6.4 2 Noroeste 5 Noroeste 0 -- -- 89
2021-02-11 01:00:00 6.8 0 Calma 5 Sudoeste 0 -- -- 89
2021-02-11 00:00:00 6.9 0 Calma 4 Noroeste 0 -- -- 88
2021-02-10 23:00:00 7.4 2 Oeste 6 Noroeste 0 -- -- 85
2021-02-10 22:00:00 8.1 0 Calma 6 Sur 0 -- -- 80
2021-02-10 21:00:00 9.3 0 Calma 8 Norte 0 -- -- 75
2021-02-10 20:00:00 10.4 2 Norte 8 Sudeste 0 -- -- 71
2021-02-10 19:00:00 11.8 4 Sudeste 12 Sudeste 0 -- -- 65
2021-02-10 18:00:00 13.6 5 Sudeste 11 Sudeste 0 -- -- 54
2021-02-10 17:00:00 15.4 4 Este 11 Este 0 -- -- 47
2021-02-10 16:00:00 15.3 5 Nordeste 19 Norte 0 -- -- 47
2021-02-10 15:00:00 15.2 8 Norte 22 Nordeste 0 -- -- 48
2021-02-10 14:00:00 14.7 4 Norte 22 Noroeste 0 -- -- 57
2021-02-10 13:00:00 13.8 7 Norte 19 Noroeste 0 -- -- 60
2021-02-10 12:00:00 12.1 6 Norte 14 Norte 0 -- -- 66
2021-02-10 11:00:00 10.2 0 Calma 4 Este 0 -- -- 69
2021-02-10 10:00:00 9.5 2 Este 4 Sudeste 0 -- -- 72
2021-02-10 09:00:00 9 3 Sur 12 Noroeste 0 -- -- 70
2021-02-10 08:00:00 8.6 4 Sur 12 Sur 0 -- -- 72
2021-02-10 07:00:00 9.5 6 Sudoeste 15 Sur 0 -- -- 66
2021-02-10 06:00:00 9 5 Sudoeste 12 Sur 0 -- -- 70
2021-02-10 05:00:00 8 2 Sudeste 8 Sudoeste 0 -- -- 77
2021-02-10 04:00:00 8.4 0 Calma 6 Sudoeste 0 -- -- 74
2021-02-10 03:00:00 10 6 Norte 13 Norte 0 -- -- 68
2021-02-10 02:00:00 10.6 2 Este 18 Sur 0 -- -- 67
2021-02-10 01:00:00 11.1 3 Este 18 Noroeste 0 -- -- 66
2021-02-10 00:00:00 12.4 8 Oeste 28 Sudoeste 0 -- -- 62
2021-02-09 23:00:00 11.5 12 Sudoeste 25 Sudoeste 0 -- -- 72
2021-02-09 22:00:00 11.7 4 Oeste 23 Sudoeste 0 -- -- 71
2021-02-09 21:00:00 12.1 10 Sur 21 Sur 0 -- -- 68
2021-02-09 20:00:00 11.8 3 Sudoeste 13 Sur 0 -- -- 66
2021-02-09 19:00:00 12 4 Sudoeste 13 Sudoeste 0 -- -- 65
2021-02-09 18:00:00 12.8 6 Sudoeste 14 Sudoeste 0 -- -- 64
2021-02-09 17:00:00 13.5 2 Noroeste 11 Noroeste 0 -- -- 62
2021-02-09 16:00:00 14.2 3 Noroeste 18 Sudoeste 0 -- -- 60
2021-02-09 15:00:00 14.8 13 Sudoeste 27 Sur 0 -- -- 56
2021-02-09 14:00:00 13.8 9 Sur 25 Sur 0 -- -- 60
2021-02-09 13:00:00 12.6 10 Sur 22 Sur 0 -- -- 68
2021-02-09 12:00:00 10.9 5 Sudeste 15 Sudeste 0 -- -- 75
2021-02-09 11:00:00 8.8 3 Sur 10 Sudeste 0 -- -- 88
2021-02-09 10:00:00 5.6 4 Este 12 Este 0 -- -- 100
2021-02-09 09:00:00 4.1 3 Este 11 Sur 0 -- -- 100
2021-02-09 08:00:00 3.1 3 Este 7 Sudeste 0 -- -- 100
2021-02-09 07:00:00 3 2 Sudeste 8 Sur 0 -- -- 100
2021-02-09 06:00:00 3.1 0 Calma 5 Sudoeste 0 -- -- 100
2021-02-09 05:00:00 3.5 2 Este 7 Nordeste 0 -- -- 100
2021-02-09 04:00:00 3.8 3 Sudeste 9 Sudeste 0 -- -- 100
2021-02-09 03:00:00 4.1 4 Este 13 Este 0 -- -- 100
2021-02-09 02:00:00 4.8 0 Calma 5 Oeste 0 -- -- 100
2021-02-09 01:00:00 5.6 0 Calma 4 Este 0 -- -- 100
2021-02-09 00:00:00 6.4 0 Calma 4 Este 0 -- -- 100
2021-02-08 23:00:00 7.4 2 Nordeste 8 Sudoeste 0 -- -- 100
2021-02-08 22:00:00 7.9 2 Sur 8 Sudeste 0 -- -- 99
2021-02-08 21:00:00 8.5 2 Sudeste 11 Sudoeste 0 -- -- 99
2021-02-08 20:00:00 8.6 0 Calma 6 Este 0.2 -- -- 97
2021-02-08 19:00:00 8.9 2 Este 8 Sudeste 0.6 -- -- 96
2021-02-08 18:00:00 9.2 0 Calma 9 Norte 0.6 -- -- 91
2021-02-08 17:00:00 9.6 4 Norte 9 Norte 0.4 -- -- 89
2021-02-08 16:00:00 9.9 3 Norte 11 Noroeste 0.6 -- -- 89
2021-02-08 15:00:00 10.5 5 Noroeste 10 Norte 0.4 -- -- 84
2021-02-08 14:00:00 11.2 0 Calma 10 Sur 0 -- -- 78
2021-02-08 13:00:00 11.1 4 Sudeste 9 Sur 0 -- -- 75
2021-02-08 12:00:00 10.2 3 Sudeste 9 Sudeste 0 -- -- 76
2021-02-08 11:00:00 7.2 6 Sur 12 Sudoeste 0 -- -- 92
2021-02-08 10:00:00 5.4 3 Sudeste 11 Sudeste 0 -- -- 98
2021-02-08 09:00:00 4.4 2 Nordeste 10 Este 0 -- -- 100
2021-02-08 08:00:00 4.1 0 Calma 8 Este 0 -- -- 100
2021-02-08 07:00:00 4.1 0 Calma 5 Este 0 -- -- 100
2021-02-08 06:00:00 4.4 3 Nordeste 6 Este 0 -- -- 100
2021-02-08 05:00:00 4.2 2 Sudeste 6 Este 0 -- -- 100
2021-02-08 04:00:00 4.1 0 Calma 4 Sudoeste 0 -- -- 100
2021-02-08 03:00:00 4.5 0 Calma 6 Sudeste 0 -- -- 100
2021-02-08 02:00:00 4.5 0 Calma 3 Noroeste 0 -- -- 100
2021-02-08 01:00:00 5 0 Calma 5 Sudeste 0 -- -- 100
2021-02-08 00:00:00 5.6 3 Sur 5 Sudeste 0 -- -- 100
2021-02-07 23:00:00 5.6 0 Calma 5 Sur 0 -- -- 98
2021-02-07 22:00:00 6.2 2 Sudeste 7 Sur 0 -- -- 98
2021-02-07 21:00:00 6.3 3 Sur 8 Sur 0 -- -- 95
2021-02-07 20:00:00 6.9 3 Sudeste 10 Sudeste 0 -- -- 93
2021-02-07 19:00:00 7 5 Sur 10 Sudeste 0 -- -- 92
2021-02-07 18:00:00 7.5 3 Sudeste 10 Sur 0 -- -- 90
2021-02-07 17:00:00 7.7 4 Sur 8 Sudeste 0 -- -- 89
2021-02-07 16:00:00 7.7 2 Oeste 6 Sudoeste 0.2 -- -- 88
2021-02-07 15:00:00 7.1 0 Calma 7 Noroeste 0 -- -- 86
2021-02-07 14:00:00 7.2 4 Norte 11 Nordeste 0.6 -- -- 85
2021-02-07 13:00:00 7.3 0 Calma 18 Norte 0.2 -- -- 90
2021-02-07 12:00:00 6.9 6 Norte 18 Norte 0.8 -- -- 91
2021-02-07 11:00:00 6.8 8 Norte 17 Norte 1.8 -- -- 89
2021-02-07 10:00:00 7.4 9 Norte 16 Noroeste 0.4 -- -- 84
2021-02-07 09:00:00 7.5 5 Noroeste 16 Norte 0.2 -- -- 86
2021-02-07 08:00:00 7.7 8 Norte 17 Norte 0 -- -- 90
2021-02-07 07:00:00 8.7 5 Norte 12 Nordeste 2.4 -- -- 89
2021-02-07 06:00:00 9.5 2 Nordeste 6 Nordeste 1.4 -- -- 93
2021-02-07 05:00:00 10.2 4 Nordeste 7 Nordeste 1.4 -- -- 98
2021-02-07 04:00:00 9.9 2 Noroeste 6 Nordeste 1.4 -- -- 95
2021-02-07 03:00:00 9.9 0 Calma 5 Sudoeste 0 -- -- 93
2021-02-07 02:00:00 9.5 0 Calma 3 Sudeste 0 -- -- 95
2021-02-07 01:00:00 9.6 0 Calma 8 Sudoeste 0 -- -- 95
2021-02-07 00:00:00 10.2 0 Calma 12 Noroeste 0 -- -- 94
2021-02-06 23:00:00 10.5 0 Calma 6 Nordeste 0 -- -- 93
2021-02-06 22:00:00 11.5 2 Sudeste 9 Sudeste 0 -- -- 90
2021-02-06 21:00:00 12.3 4 Sur 12 Sudeste 0 -- -- 88
2021-02-06 20:00:00 13 5 Sudeste 9 Sur 0 -- -- 87
2021-02-06 19:00:00 13.6 3 Nordeste 19 Sur 0 -- -- 84
2021-02-06 18:00:00 14.7 5 Sudeste 23 Sudeste 0 -- -- 79
2021-02-06 17:00:00 16.9 8 Sur 21 Sudeste 0 -- -- 69
2021-02-06 16:00:00 18.5 6 Sur 30 Sudeste 0 -- -- 64
2021-02-06 15:00:00 19 11 Sudeste 26 Sur 0 -- -- 60
2021-02-06 14:00:00 18.9 9 Sur 25 Sudeste 0 -- -- 63
2021-02-06 13:00:00 17.7 8 Sur 15 Sur 0 -- -- 66
2021-02-06 12:00:00 15.9 3 Nordeste 10 Norte 0 -- -- 73
2021-02-06 11:00:00 14.2 6 Norte 11 Nordeste 0 -- -- 81
2021-02-06 10:00:00 13 3 Noroeste 12 Norte 0 -- -- 86
2021-02-06 09:00:00 12.6 4 Norte 12 Noroeste 0 -- -- 88
2021-02-06 08:00:00 12.2 3 Norte 15 Norte 0 -- -- 91
2021-02-06 07:00:00 12 6 Noroeste 18 Noroeste 0 -- -- 93
2021-02-06 06:00:00 11.5 6 Norte 19 Norte 0 -- -- 92
2021-02-06 05:00:00 11.2 9 Noroeste 16 Noroeste 0 -- -- 91
2021-02-06 04:00:00 11.3 3 Noroeste 13 Norte 0 -- -- 92
2021-02-06 03:00:00 11.3 8 Norte 18 Norte 0 -- -- 93
2021-02-06 02:00:00 10.8 4 Noroeste 13 Noroeste 0 -- -- 95
2021-02-06 01:00:00 10.5 5 Noroeste 13 Norte 0 -- -- 96
2021-02-06 00:00:00 10.5 4 Noroeste 8 Norte 0 -- -- 95
2021-02-05 23:00:00 10.9 0 Calma 10 Norte 0 -- -- 94
2021-02-05 22:00:00 11.2 4 Noroeste 14 Norte 0 -- -- 94
2021-02-05 21:00:00 11.5 4 Noroeste 7 Noroeste 0 -- -- 92
2021-02-05 20:00:00 12 4 Norte 9 Norte 0 -- -- 89
2021-02-05 19:00:00 12.5 5 Norte 15 Norte 0 -- -- 86
2021-02-05 18:00:00 13.3 4 Norte 13 Norte 0 -- -- 80
2021-02-05 17:00:00 14.4 6 Nordeste 14 Norte 0 -- -- 74
2021-02-05 16:00:00 15.3 8 Nordeste 17 Nordeste 0 -- -- 67
2021-02-05 15:00:00 15.9 5 Nordeste 16 Este 0 -- -- 66
2021-02-05 14:00:00 15 8 Norte 20 Este 0 -- -- 68
2021-02-05 13:00:00 14 8 Nordeste 18 Norte 0 -- -- 73
2021-02-05 12:00:00 13.7 5 Norte 12 Norte 0 -- -- 75
2021-02-05 11:00:00 12.2 4 Norte 18 Noroeste 0 -- -- 81
2021-02-05 10:00:00 11.6 8 Norte 19 Noroeste 0 -- -- 85
2021-02-05 09:00:00 11.1 3 Norte 10 Nordeste 0 -- -- 88
2021-02-05 08:00:00 10.8 0 Calma 8 Noroeste 0 -- -- 89
2021-02-05 07:00:00 10.7 3 Noroeste 6 Noroeste 0 -- -- 89
2021-02-05 06:00:00 10.7 0 Calma 5 Noroeste 0 -- -- 90
2021-02-05 05:00:00 10.7 3 Oeste 5 Oeste 0 -- -- 89
2021-02-05 04:00:00 10.9 0 Calma 4 Oeste 0 -- -- 89
2021-02-05 03:00:00 11.1 0 Calma 9 Sudoeste 0 -- -- 90
2021-02-05 02:00:00 11.2 3 Sudeste 6 Sur 0 -- -- 91
2021-02-05 01:00:00 11.2 0 Calma 6 Sudeste 0 -- -- 92
2021-02-05 00:00:00 11.3 4 Sudeste 9 Sudoeste 0 -- -- 92
2021-02-04 23:00:00 11.2 4 Sur 10 Sudoeste 0 -- -- 92
2021-02-04 22:00:00 11 5 Sur 12 Sur 0 -- -- 92
2021-02-04 21:00:00 10.9 6 Sur 14 Sur 0 -- -- 93
2021-02-04 20:00:00 11.1 5 Sudeste 12 Sudeste 0 -- -- 92
2021-02-04 19:00:00 11.8 5 Sur 12 Sudeste 0 -- -- 89
2021-02-04 18:00:00 13 5 Sur 11 Norte 0 -- -- 83
2021-02-04 17:00:00 15.3 4 Noroeste 14 Norte 0 -- -- 76
2021-02-04 16:00:00 17.3 5 Norte 13 Norte 0 -- -- 70
2021-02-04 15:00:00 17.7 4 Norte 9 Nordeste 0 -- -- 66
2021-02-04 14:00:00 18.9 3 Sudoeste 15 Sur 0 -- -- 58
2021-02-04 13:00:00 17.4 5 Sur 10 Sudeste 0 -- -- 61
2021-02-04 12:00:00 15.2 6 Sur 12 Sudoeste 0 -- -- 69
2021-02-04 11:00:00 11.7 3 Sur 6 Sudeste 0 -- -- 83
2021-02-04 10:00:00 7.7 2 Este 6 Este 0 -- -- 97
2021-02-04 09:00:00 6.4 3 Nordeste 5 Este 0 -- -- 98
2021-02-04 08:00:00 6.3 0 Calma 4 Nordeste 0 -- -- 98
2021-02-04 07:00:00 6.9 0 Calma 4 Norte 0 -- -- 100
2021-02-04 06:00:00 7.2 0 Calma 5 Sudoeste 0 -- -- 100
2021-02-04 05:00:00 7.4 0 Calma 4 Este 0 -- -- 98
2021-02-04 04:00:00 7.9 0 Calma 5 Este 0 -- -- 97
2021-02-04 03:00:00 8.4 2 Nordeste 4 Nordeste 0 -- -- 96
2021-02-04 02:00:00 8.8 0 Calma 4 Nordeste 0 -- -- 96
2021-02-04 01:00:00 9.4 0 Calma 3 Este 0 -- -- 95
2021-02-04 00:00:00 10.1 0 Calma 3 Oeste 0 -- -- 91
2021-02-03 23:00:00 10.9 0 Calma 3 Nordeste 0 -- -- 89
2021-02-03 22:00:00 11.4 0 Calma 2 Oeste 0 -- -- 87
2021-02-03 21:00:00 12.2 0 Calma 3 Este 0 -- -- 84
2021-02-03 20:00:00 13 0 Calma 7 Norte 0 -- -- 81
2021-02-03 19:00:00 13.6 3 Noroeste 8 Noroeste 0 -- -- 78
2021-02-03 18:00:00 14.8 2 Noroeste 8 Norte 0 -- -- 73
2021-02-03 17:00:00 16.3 5 Norte 12 Norte 0 -- -- 66
2021-02-03 16:00:00 17.5 6 Norte 15 Norte 0 -- -- 64
2021-02-03 15:00:00 20 5 Norte 15 Norte 0 -- -- 56
2021-02-03 14:00:00 23 7 Sur 17 Sudeste 0 -- -- 40
2021-02-03 13:00:00 21.6 5 Sur 16 Sudeste 0 -- -- 46
2021-02-03 12:00:00 19.4 8 Sudeste 17 Sudeste 0 -- -- 52
2021-02-03 11:00:00 15.3 5 Sudeste 10 Nordeste 0 -- -- 64
2021-02-03 10:00:00 11.6 3 Sudeste 10 Sudeste 0 -- -- 81
2021-02-03 09:00:00 10.2 3 Este 22 Sudeste 0 -- -- 82
2021-02-03 08:00:00 10.8 9 Sudeste 19 Sudeste 0 -- -- 80
2021-02-03 07:00:00 10.4 7 Sudeste 24 Sudeste 0 -- -- 80
2021-02-03 06:00:00 9.7 6 Este 18 Este 0 -- -- 85
2021-02-03 05:00:00 9 6 Este 12 Este 0 -- -- 86
2021-02-03 04:00:00 10.1 2 Este 12 Sudeste 0 -- -- 83
2021-02-03 03:00:00 10.3 4 Sudeste 16 Este 0 -- -- 84
2021-02-03 02:00:00 9.6 3 Este 9 Nordeste 0 -- -- 93
2021-02-03 01:00:00 8.9 3 Sudeste 8 Este 0 -- -- 94
2021-02-03 00:00:00 9.4 3 Sur 8 Sudeste 0 -- -- 92
2021-02-02 23:00:00 9.6 0 Calma 6 Este 0 -- -- 88
2021-02-02 22:00:00 10.5 2 Sudeste 6 Sudeste 0 -- -- 84
2021-02-02 21:00:00 11.7 2 Sudeste 9 Sudoeste 0 -- -- 79
2021-02-02 20:00:00 12.6 0 Calma 6 Sur 0 -- -- 75
2021-02-02 19:00:00 14 4 Sur 11 Sudeste 0 -- -- 69
2021-02-02 18:00:00 15.3 0 Calma 14 Sudeste 0 -- -- 64
2021-02-02 17:00:00 17 4 Sur 17 Sur 0 -- -- 56
2021-02-02 16:00:00 19.5 6 Sur 16 Sur 0 -- -- 49
2021-02-02 15:00:00 20.6 5 Sudeste 11 Sudeste 0 -- -- 44
2021-02-02 14:00:00 18.7 4 Sudeste 11 Este 0 -- -- 49
2021-02-02 13:00:00 17.6 4 Sur 10 Sudeste 0 -- -- 57
2021-02-02 12:00:00 16.4 5 Sur 8 Sur 0 -- -- 61
2021-02-02 11:00:00 11.4 2 Nordeste 5 Sudoeste 0 -- -- 78
2021-02-02 10:00:00 7.1 0 Calma 4 Sudeste 0 -- -- 95
2021-02-02 09:00:00 5.8 0 Calma 5 Nordeste 0 -- -- 96
2021-02-02 08:00:00 6 3 Sudeste 6 Sudeste 0 -- -- 95
2021-02-02 07:00:00 6.3 3 Oeste 8 Sudoeste 0 -- -- 94
2021-02-02 06:00:00 6.6 2 Sudeste 7 Sudeste 0 -- -- 93
2021-02-02 05:00:00 7.2 3 Sudeste 7 Sudeste 0 -- -- 91
2021-02-02 04:00:00 7.2 0 Calma 6 Oeste 0 -- -- 92
2021-02-02 03:00:00 7.2 0 Calma 4 Sudoeste 0 -- -- 93
2021-02-02 02:00:00 6.9 0 Calma 5 Sudeste 0 -- -- 92
2021-02-02 01:00:00 7.4 0 Calma 6 Nordeste 0 -- -- 92
2021-02-02 00:00:00 7.7 0 Calma 5 Sudoeste 0 -- -- 91
2021-02-01 23:00:00 8.4 0 Calma 4 Oeste 0 -- -- 89
2021-02-01 22:00:00 9.2 0 Calma 4 Oeste 0 -- -- 85
2021-02-01 21:00:00 10.3 0 Calma 4 Este 0 -- -- 79
2021-02-01 20:00:00 11.8 3 Nordeste 9 Sudoeste 0 -- -- 72
2021-02-01 19:00:00 13.3 0 Calma 14 Sudeste 0 -- -- 64
2021-02-01 18:00:00 15.4 7 Sur 19 Sur 0 -- -- 61
2021-02-01 17:00:00 19.1 9 Sur 17 Sudeste 0 -- -- 54
2021-02-01 16:00:00 20 8 Sudeste 15 Sudeste 0 -- -- 43
2021-02-01 15:00:00 19.5 5 Sudeste 14 Este 0 -- -- 43
2021-02-01 14:00:00 17.9 2 Norte 9 Nordeste 0 -- -- 49
2021-02-01 13:00:00 16.1 4 Norte 14 Norte 0 -- -- 58
2021-02-01 12:00:00 14.9 4 Noroeste 13 Norte 0 -- -- 59
2021-02-01 11:00:00 11.8 5 Norte 12 Norte 0 -- -- 74
2021-02-01 10:00:00 8.2 0 Calma 5 Noroeste 0 -- -- 89
2021-02-01 09:00:00 6.5 0 Calma 6 Nordeste 0 -- -- 95
2021-02-01 08:00:00 6.4 0 Calma 7 Nordeste 0 -- -- 92
2021-02-01 07:00:00 6.7 3 Norte 9 Sudeste 0 -- -- 91
2021-02-01 06:00:00 6.9 2 Noroeste 9 Nordeste 0 -- -- 91
2021-02-01 05:00:00 7.2 3 Este 8 Sudeste 0 -- -- 90
2021-02-01 04:00:00 7.5 2 Este 7 Este 0 -- -- 88
2021-02-01 03:00:00 8.3 3 Sudeste 6 Sudoeste 0 -- -- 85
2021-02-01 02:00:00 9.2 2 Sur 19 Norte 0 -- -- 81
2021-02-01 01:00:00 8.7 9 Norte 21 Norte 0 -- -- 88
2021-02-01 00:00:00 8 4 Sudoeste 13 Sudeste 0 -- -- 87
2021-01-31 23:00:00 8.7 3 Sudeste 7 Sudeste 0 -- -- 87
2021-01-31 22:00:00 9.6 2 Nordeste 6 Nordeste 0 -- -- 81
2021-01-31 21:00:00 11 2 Este 8 Sudeste 0 -- -- 76
2021-01-31 20:00:00 12.6 2 Sudeste 6 Sur 0 -- -- 68
2021-01-31 19:00:00 14.5 2 Sur 10 Sudoeste 0 -- -- 60
2021-01-31 18:00:00 16.1 3 Sudoeste 11 Sudoeste 0 -- -- 52
2021-01-31 17:00:00 17.4 5 Oeste 15 Oeste 0 -- -- 47
2021-01-31 16:00:00 17.4 4 Oeste 13 Oeste 0 -- -- 45
2021-01-31 15:00:00 16.4 5 Oeste 15 Sudoeste 0 -- -- 48
2021-01-31 14:00:00 16.7 5 Oeste 19 Sur 0 -- -- 47
2021-01-31 13:00:00 15.9 8 Sudoeste 15 Sudoeste 0 -- -- 50
2021-01-31 12:00:00 14.2 6 Oeste 18 Oeste 0 -- -- 52
2021-01-31 11:00:00 11.4 3 Sudoeste 9 Sudeste 0 -- -- 65
2021-01-31 10:00:00 8.2 3 Sudeste 10 Este 0 -- -- 84
2021-01-31 09:00:00 6.5 3 Este 9 Este 0 -- -- 95
2021-01-31 08:00:00 6.1 5 Nordeste 8 Nordeste 0 -- -- 96
2021-01-31 07:00:00 5.9 2 Sudeste 9 Este 0 -- -- 98
2021-01-31 06:00:00 6 2 Nordeste 8 Nordeste 0 -- -- 99
2021-01-31 05:00:00 6.5 3 Este 8 Nordeste 0 -- -- 100
2021-01-31 04:00:00 6.5 3 Este 9 Sudeste 0 -- -- 100
2021-01-31 03:00:00 6.9 2 Sudeste 8 Este 0 -- -- 100
2021-01-31 02:00:00 6.8 0 Calma 4 Sudeste 0 -- -- 100
2021-01-31 01:00:00 7 0 Calma 8 Sudeste 0 -- -- 100
2021-01-31 00:00:00 7.6 2 Sudeste 9 Sudeste 0 -- -- 100
2021-01-30 23:00:00 8.1 3 Sudeste 7 Sudeste 0 -- -- 99
2021-01-30 22:00:00 8.4 3 Sur 8 Sudeste 0 -- -- 99
2021-01-30 21:00:00 9.1 5 Sudeste 14 Sudeste 0.4 -- -- 98
2021-01-30 20:00:00 9.2 3 Sur 9 Sudeste 2 -- -- 97
2021-01-30 19:00:00 9.4 3 Sudeste 6 Sudeste 0 -- -- 95
2021-01-30 18:00:00 9.6 0 Calma 10 Sudoeste 0 -- -- 93
2021-01-30 17:00:00 9.8 0 Calma 8 Oeste 0.2 -- -- 91
2021-01-30 16:00:00 10.5 0 Calma 22 Nordeste 2.8 -- -- 83
2021-01-30 15:00:00 12.3 8 Norte 27 Norte 0 -- -- 67
2021-01-30 14:00:00 14.3 10 Nordeste 23 Nordeste 0 -- -- 65
2021-01-30 13:00:00 15.1 2 Sudeste 13 Nordeste 0 -- -- 65
2021-01-30 12:00:00 15.9 10 Norte 24 Nordeste 0 -- -- 62
2021-01-30 11:00:00 18.1 5 Sudoeste 30 Sudoeste 0 -- -- 51
2021-01-30 10:00:00 10.8 4 Este 10 Sur 0 -- -- 87
2021-01-30 09:00:00 9.7 5 Sudeste 15 Sudeste 0 -- -- 89
2021-01-30 08:00:00 9.3 6 Sudeste 18 Sudeste 0 -- -- 95
2021-01-30 07:00:00 8.4 3 Sudeste 16 Sudeste 0 -- -- 100
2021-01-30 06:00:00 6.8 3 Este 10 Sudeste 0 -- -- 99
2021-01-30 05:00:00 7.5 0 Calma 8 Este 0 -- -- 99
2021-01-30 04:00:00 7.8 3 Sur 6 Sur 0 -- -- 96
2021-01-30 03:00:00 8.6 3 Nordeste 6 Sudoeste 0 -- -- 95
2021-01-30 02:00:00 9.1 2 Sur 6 Sudoeste 0 -- -- 93
2021-01-30 01:00:00 9.8 0 Calma 5 Este 0 -- -- 92
2021-01-30 00:00:00 10.8 2 Nordeste 8 Sur 0 -- -- 90
2021-01-29 23:00:00 11.8 2 Este 6 Este 0 -- -- 83
2021-01-29 22:00:00 13.2 0 Calma 5 Sur 0 -- -- 78
2021-01-29 21:00:00 13.8 0 Calma 4 Este 0 -- -- 76
2021-01-29 20:00:00 14.1 0 Calma 6 Sudoeste 0 -- -- 75
2021-01-29 19:00:00 14.8 2 Sudoeste 9 Sudoeste 0 -- -- 71
2021-01-29 18:00:00 16.8 3 Sur 13 Sudeste 0 -- -- 63
2021-01-29 17:00:00 19.8 6 Sudeste 15 Sudeste 0 -- -- 52
2021-01-29 16:00:00 19.9 8 Sur 17 Este 0 -- -- 53
2021-01-29 15:00:00 21.3 6 Sur 17 Sudoeste 0 -- -- 48
2021-01-29 14:00:00 20.5 4 Sur 11 Sudoeste 0 -- -- 51
2021-01-29 13:00:00 18.8 5 Sur 8 Sudoeste 0 -- -- 57
2021-01-29 12:00:00 15.2 3 Sudeste 10 Sur 0 -- -- 71
2021-01-29 11:00:00 11.2 3 Sur 6 Sur 0 -- -- 90
2021-01-29 10:00:00 7.7 0 Calma 5 Sudeste 0 -- -- 99
2021-01-29 09:00:00 6.1 3 Nordeste 6 Nordeste 0 -- -- 99
2021-01-29 08:00:00 6 0 Calma 4 Sudeste 0 -- -- 98
2021-01-29 07:00:00 6.2 0 Calma 4 Sur 0 -- -- 97
2021-01-29 06:00:00 6.8 2 Este 9 Sudeste 0 -- -- 96
2021-01-29 05:00:00 7.2 2 Este 8 Este 0 -- -- 97
2021-01-29 04:00:00 7.3 0 Calma 4 Nordeste 0 -- -- 96
2021-01-29 03:00:00 7.7 3 Sudeste 8 Sudoeste 0 -- -- 97
2021-01-29 02:00:00 7.6 0 Calma 4 Sudoeste 0 -- -- 97
2021-01-29 01:00:00 7.7 0 Calma 5 Noroeste 0 -- -- 96
2021-01-29 00:00:00 8.1 0 Calma 4 Sudoeste 0 -- -- 93
2021-01-28 23:00:00 8.6 0 Calma 2 Este 0 -- -- 92
2021-01-28 22:00:00 9.5 0 Calma 4 Nordeste 0 -- -- 89
2021-01-28 21:00:00 10.5 2 Nordeste 4 Este 0 -- -- 84
2021-01-28 20:00:00 11.6 0 Calma 5 Sudoeste 0 -- -- 80
2021-01-28 19:00:00 13.4 0 Calma 9 Este 0 -- -- 73
2021-01-28 18:00:00 15.8 3 Sur 10 Sudeste 0 -- -- 66
2021-01-28 17:00:00 18 4 Sudeste 13 Sur 0 -- -- 57
2021-01-28 16:00:00 18.9 6 Sur 11 Sur 0 -- -- 54
2021-01-28 15:00:00 18.8 0 Calma 6 Sudeste 0 -- -- 56
2021-01-28 14:00:00 18.7 3 Sur 8 Sur 0 -- -- 55
2021-01-28 13:00:00 17 2 Oeste 9 Norte 0 -- -- 62
2021-01-28 12:00:00 15.4 0 Calma 4 Sudoeste 0 -- -- 66
2021-01-28 11:00:00 10.4 0 Calma 3 Sudoeste 0 -- -- 82
2021-01-28 10:00:00 7 0 Calma 4 Oeste 0 -- -- 93
2021-01-28 09:00:00 5.5 0 Calma 5 Este 0 -- -- 96
2021-01-28 08:00:00 5.1 0 Calma 6 Sudeste 0 -- -- 96
2021-01-28 07:00:00 5.3 2 Este 5 Nordeste 0 -- -- 95
2021-01-28 06:00:00 5.7 3 Norte 5 Nordeste 0 -- -- 94
2021-01-28 05:00:00 6.1 0 Calma 4 Nordeste 0 -- -- 93
2021-01-28 04:00:00 6.6 0 Calma 4 Nordeste 0 -- -- 92
2021-01-28 03:00:00 7 0 Calma 4 Este 0 -- -- 91
2021-01-28 02:00:00 7.6 0 Calma 5 Sudeste 0 -- -- 89
2021-01-28 01:00:00 8.3 2 Noroeste 7 Norte 0 -- -- 86
2021-01-28 00:00:00 9.1 3 Sudeste 7 Sudeste 0 -- -- 83
2021-01-27 23:00:00 9.7 4 Sudoeste 9 Sur 0 -- -- 79
2021-01-27 22:00:00 9.6 0 Calma 5 Sudeste 0 -- -- 80
2021-01-27 21:00:00 9.5 0 Calma 3 Norte 0 -- -- 78
2021-01-27 20:00:00 10.3 0 Calma 4 Este 0 -- -- 74
2021-01-27 19:00:00 11.5 0 Calma 4 Este 0 -- -- 69
2021-01-27 18:00:00 13.7 0 Calma 4 Sudeste 0 -- -- 59
2021-01-27 17:00:00 16 2 Sur 8 Sur 0 -- -- 49
2021-01-27 16:00:00 16.7 5 Sudoeste 10 Sur 0 -- -- 46
2021-01-27 15:00:00 18.4 4 Sudeste 10 Sur 0 -- -- 42
2021-01-27 14:00:00 16.6 3 Sur 6 Oeste 0 -- -- 41
2021-01-27 13:00:00 15 3 Oeste 8 Sudoeste 0 -- -- 43
2021-01-27 12:00:00 12.4 4 Sur 13 Sudeste 0 -- -- 57
2021-01-27 11:00:00 8.4 3 Sur 6 Sur 0 -- -- 69
2021-01-27 10:00:00 5.3 3 Sudoeste 5 Sudoeste 0 -- -- 87
2021-01-27 09:00:00 3.7 3 Nordeste 5 Este 0 -- -- 92
2021-01-27 08:00:00 3.7 3 Oeste 7 Noroeste 0 -- -- 92
2021-01-27 07:00:00 3.7 0 Calma 4 Sudeste 0 -- -- 92
2021-01-27 06:00:00 3.5 0 Calma 7 Norte 0 -- -- 93
2021-01-27 05:00:00 3.2 3 Sur 6 Este 0 -- -- 95
2021-01-27 04:00:00 2.7 0 Calma 5 Norte 0 -- -- 95
2021-01-27 03:00:00 2.9 0 Calma 4 Este 0 -- -- 93
2021-01-27 02:00:00 3.5 0 Calma 5 Nordeste 0 -- -- 93
2021-01-27 01:00:00 3.4 0 Calma 5 Sudoeste 0 -- -- 92
2021-01-27 00:00:00 4.1 2 Oeste 5 Noroeste 0 -- -- 92
2021-01-26 23:00:00 4.5 2 Oeste 4 Oeste 0 -- -- 90
2021-01-26 22:00:00 5.3 0 Calma 5 Sudoeste 0 -- -- 87
2021-01-26 21:00:00 6.2 0 Calma 5 Noroeste 0 -- -- 84
2021-01-26 20:00:00 7.4 0 Calma 4 Sur 0 -- -- 80
2021-01-26 19:00:00 8.8 0 Calma 9 Sudeste 0 -- -- 74
2021-01-26 18:00:00 10.2 2 Sudeste 14 Sudeste 0 -- -- 68
2021-01-26 17:00:00 11.5 6 Sudeste 18 Sudeste 0 -- -- 63
2021-01-26 16:00:00 13.1 9 Sudeste 21 Sudeste 0 -- -- 53
2021-01-26 15:00:00 13.1 6 Sur 19 Sur 0 -- -- 53
2021-01-26 14:00:00 12.9 6 Sur 19 Sur 0 -- -- 52
2021-01-26 13:00:00 12.2 5 Sur 13 Este 0 -- -- 45
2021-01-26 12:00:00 10 4 Sur 10 Sudoeste 0 -- -- 56
2021-01-26 11:00:00 7.2 3 Sudoeste 6 Sudoeste 0 -- -- 66
2021-01-26 10:00:00 5.1 2 Noroeste 4 Noroeste 0 -- -- 76
2021-01-26 09:00:00 3.5 0 Calma 3 Oeste 0 -- -- 82
2021-01-26 08:00:00 3.8 0 Calma 4 Oeste 0 -- -- 76
2021-01-26 07:00:00 5.2 0 Calma 8 Nordeste 0 -- -- 69
2021-01-26 06:00:00 5.9 3 Nordeste 14 Norte 0 -- -- 65
2021-01-26 05:00:00 6.3 4 Norte 20 Norte 0 -- -- 63
2021-01-26 04:00:00 6.7 10 Norte 22 Norte 0 -- -- 62
2021-01-26 03:00:00 7.2 9 Norte 19 Norte 0 -- -- 62
2021-01-26 02:00:00 7.5 9 Norte 28 Norte 0 -- -- 62
2021-01-26 01:00:00 7.8 7 Norte 30 Norte 0 -- -- 64
2021-01-26 00:00:00 8 12 Norte 40 Norte 0 -- -- 66
2021-01-25 23:00:00 8.2 14 Norte 34 Norte 0 -- -- 65
2021-01-25 22:00:00 8.2 10 Norte 32 Norte 0 -- -- 65
2021-01-25 21:00:00 8.5 11 Norte 33 Norte 0 -- -- 63
2021-01-25 20:00:00 8.3 12 Norte 34 Nordeste 0 -- -- 64
2021-01-25 19:00:00 8.6 10 Norte 25 Nordeste 0 -- -- 66
2021-01-25 18:00:00 9.4 10 Norte 26 Noroeste 0 -- -- 67
2021-01-25 17:00:00 10.4 9 Norte 26 Norte 0 -- -- 65
2021-01-25 16:00:00 12.7 4 Este 13 Nordeste 0 -- -- 65
2021-01-25 15:00:00 12.6 5 Norte 14 Nordeste 0 -- -- 65
2021-01-25 14:00:00 13.3 5 Norte 13 Nordeste 0 -- -- 60
2021-01-25 13:00:00 11.8 4 Noroeste 13 Noroeste 0 -- -- 63
2021-01-25 12:00:00 9.3 4 Noroeste 9 Norte 0 -- -- 72
2021-01-25 11:00:00 6.7 2 Oeste 5 Sudoeste 0 -- -- 81
2021-01-25 10:00:00 4.9 0 Calma 5 Nordeste 0 -- -- 89
2021-01-25 09:00:00 3.6 0 Calma 5 Sur 0 -- -- 95
2021-01-25 08:00:00 2.8 0 Calma 7 Este 0 -- -- 95
2021-01-25 07:00:00 2.9 0 Calma 11 Norte 0 -- -- 95
2021-01-25 06:00:00 3.2 0 Calma 5 Norte 0 -- -- 96
2021-01-25 05:00:00 3.3 0 Calma 5 Noroeste 0 -- -- 95
2021-01-25 04:00:00 3.9 0 Calma 4 Sudeste 0 -- -- 94
2021-01-25 03:00:00 4.6 0 Calma 5 Este 0 -- -- 92
2021-01-25 02:00:00 5.1 2 Este 6 Sudeste 0 -- -- 94
2021-01-25 01:00:00 5.8 2 Sudoeste 6 Sudeste 0 -- -- 94
2021-01-25 00:00:00 6.3 0 Calma 8 Sur 0 -- -- 92